Time;durP1;ratioP1;P1;durP2;ratioP2;P2;SDS_P1;SDS_P2;PMS_P1;PMS_P2;Temp;Humidity;BMP_temperature;BMP_pressure;BME280_temperature;BME280_humidity;BME280_pressure;Samples;Min_cycle;Max_cycle;Signal;HPM_P1;HPM_P2
2021/06/22 00:00:25;;;;;;;5.40;5.00;;;17.30;99.90;;;;;;5037825;28;20190;-70
2021/06/22 00:02:51;;;;;;;5.40;5.00;;;17.30;99.90;;;;;;5034136;28;20217;-70
2021/06/22 00:05:17;;;;;;;4.90;4.50;;;17.30;99.90;;;;;;5038052;28;20795;-69
2021/06/22 00:07:47;;;;;;;4.37;3.97;;;17.20;99.90;;;;;;5039787;28;20827;-70
2021/06/22 00:10:16;;;;;;;5.27;4.77;;;17.30;99.90;;;;;;5038560;28;20488;-70
2021/06/22 00:12:41;;;;;;;4.77;4.37;;;17.30;99.90;;;;;;5037011;28;20551;-70
2021/06/22 00:15:09;;;;;;;5.30;4.90;;;17.30;99.90;;;;;;5039375;28;20515;-70
2021/06/22 00:17:35;;;;;;;4.90;4.50;;;17.30;99.90;;;;;;5036703;28;20215;-70
2021/06/22 00:20:00;;;;;;;4.83;4.43;;;17.40;99.90;;;;;;5040324;28;20983;-71
2021/06/22 00:22:26;;;;;;;4.90;4.60;;;17.30;99.90;;;;;;5022463;28;20223;-70
2021/06/22 00:24:51;;;;;;;5.80;5.30;;;17.30;99.90;;;;;;5034425;28;20240;-70
2021/06/22 00:27:18;;;;;;;4.90;4.50;;;17.40;99.90;;;;;;5037537;28;20186;-71
2021/06/22 00:29:47;;;;;;;4.60;4.20;;;17.50;99.90;;;;;;5041032;28;20688;-71
2021/06/22 00:32:13;;;;;;;5.13;4.80;;;17.40;99.90;;;;;;5038068;28;20499;-71
2021/06/22 00:34:38;;;;;;;5.10;4.70;;;17.40;99.90;;;;;;5023836;28;20429;-70
2021/06/22 00:37:04;;;;;;;6.87;5.10;;;17.50;99.90;;;;;;5037080;28;20218;-70
2021/06/22 00:39:30;;;;;;;5.20;4.80;;;17.40;99.90;;;;;;5042459;28;20208;-69
2021/06/22 00:41:55;;;;;;;5.37;5.07;;;17.30;99.90;;;;;;5036850;28;20185;-71
2021/06/22 00:44:21;;;;;;;4.63;4.23;;;17.10;99.90;;;;;;5039872;28;20190;-70
2021/06/22 00:46:47;;;;;;;5.00;4.50;;;17.10;99.90;;;;;;5035091;28;20191;-70
2021/06/22 00:49:12;;;;;;;4.80;4.40;;;17.00;99.90;;;;;;5035897;28;20673;-70
2021/06/22 00:51:38;;;;;;;5.13;4.67;;;17.00;99.90;;;;;;5031169;28;20193;-68
2021/06/22 00:54:04;;;;;;;4.07;3.77;;;17.10;99.90;;;;;;5033975;28;20608;-70
2021/06/22 00:56:30;;;;;;;4.53;4.17;;;17.00;99.90;;;;;;5036519;28;20211;-70
2021/06/22 00:58:57;;;;;;;3.90;3.60;;;16.90;99.90;;;;;;5032834;28;20557;-70
2021/06/22 01:01:23;;;;;;;3.77;3.47;;;16.90;99.90;;;;;;5039648;28;20440;-70
2021/06/22 01:03:48;;;;;;;3.57;3.27;;;17.10;99.90;;;;;;5036598;28;20440;-71
2021/06/22 01:06:14;;;;;;;4.00;3.70;;;17.10;99.90;;;;;;5034547;28;20191;-68
2021/06/22 01:08:40;;;;;;;3.83;3.53;;;17.00;99.90;;;;;;5031507;28;20217;-69
2021/06/22 01:11:06;;;;;;;3.73;3.43;;;17.00;99.90;;;;;;5036830;28;20188;-71
2021/06/22 01:13:32;;;;;;;3.80;3.50;;;16.80;99.90;;;;;;5041599;28;20873;-69
2021/06/22 01:15:58;;;;;;;3.10;2.90;;;16.70;99.90;;;;;;5035455;28;20611;-69
2021/06/22 01:18:24;;;;;;;4.27;3.87;;;16.60;99.90;;;;;;5025921;28;20197;-67
2021/06/22 01:20:55;;;;;;;3.60;3.30;;;16.60;99.90;;;;;;5035048;28;21002;-70
2021/06/22 01:23:20;;;;;;;3.13;2.83;;;16.70;99.90;;;;;;5025879;28;20218;-68
2021/06/22 01:25:46;;;;;;;3.10;2.90;;;16.70;99.90;;;;;;5037998;28;20417;-69
2021/06/22 01:28:11;;;;;;;3.53;3.33;;;16.80;99.90;;;;;;5034255;28;20216;-69
2021/06/22 01:30:37;;;;;;;3.07;2.80;;;16.90;99.90;;;;;;5034879;28;20208;-70
2021/06/22 01:33:04;;;;;;;3.53;3.23;;;16.80;99.90;;;;;;5035877;28;20203;-68
2021/06/22 01:35:30;;;;;;;3.50;3.30;;;16.70;99.90;;;;;;5038889;28;20270;-68
2021/06/22 01:37:58;;;;;;;3.73;3.33;;;16.70;99.90;;;;;;5036628;28;20469;-68
2021/06/22 01:40:25;;;;;;;3.87;3.47;;;16.60;99.90;;;;;;5022841;28;20960;-70
2021/06/22 01:42:51;;;;;;;3.93;3.63;;;16.60;99.90;;;;;;5031157;28;20437;-71
2021/06/22 01:45:17;;;;;;;3.67;3.40;;;16.50;99.90;;;;;;5031874;28;20493;-69
2021/06/22 01:47:44;;;;;;;3.03;2.70;;;16.50;99.90;;;;;;5038845;28;20420;-70
2021/06/22 01:50:11;;;;;;;3.30;3.10;;;16.40;99.90;;;;;;5028222;28;20430;-70
2021/06/22 01:52:37;;;;;;;3.20;2.87;;;16.40;99.90;;;;;;5027380;28;20501;-71
2021/06/22 01:55:35;;;;;;;3.00;2.80;;;16.30;99.90;;;;;;5036957;28;20769;-68
2021/06/22 01:57:50;;;;;;;3.23;3.03;;;16.20;99.90;;;;;;5038454;28;20212;-71
2021/06/22 02:00:16;;;;;;;2.87;2.53;;;16.20;99.90;;;;;;5023399;28;20435;-70
2021/06/22 02:02:43;;;;;;;3.10;2.80;;;16.10;99.90;;;;;;5030084;28;20376;-68
2021/06/22 02:05:09;;;;;;;2.83;2.40;;;16.10;99.90;;;;;;5037226;28;20972;-68
2021/06/22 02:07:35;;;;;;;3.20;2.77;;;16.10;99.90;;;;;;5037379;28;20432;-69
2021/06/22 02:10:00;;;;;;;2.90;2.50;;;16.00;99.90;;;;;;5037585;28;20421;-69
2021/06/22 02:12:26;;;;;;;2.87;2.67;;;16.00;99.90;;;;;;5034801;28;20255;-69
2021/06/22 02:14:51;;;;;;;2.37;2.17;;;15.90;99.90;;;;;;5038624;28;20195;-69
2021/06/22 02:17:17;;;;;;;2.63;2.43;;;15.90;99.90;;;;;;5036264;28;20206;-69
2021/06/22 02:19:43;;;;;;;2.20;2.00;;;15.80;99.90;;;;;;5036349;28;20191;-69
2021/06/22 02:22:08;;;;;;;2.33;2.23;;;15.80;99.90;;;;;;5023481;28;20218;-69
2021/06/22 02:24:34;;;;;;;4.17;2.30;;;15.80;99.90;;;;;;5036716;28;20221;-69
2021/06/22 02:26:59;;;;;;;2.40;2.20;;;15.90;99.90;;;;;;5037986;28;20175;-71
2021/06/22 02:29:25;;;;;;;2.17;2.03;;;15.90;99.90;;;;;;5035267;28;20293;-69
2021/06/22 02:31:51;;;;;;;2.40;2.20;;;15.90;99.90;;;;;;5037282;28;20248;-68
2021/06/22 02:34:16;;;;;;;2.10;1.90;;;15.90;99.90;;;;;;5041442;28;20730;-70
2021/06/22 02:36:42;;;;;;;2.40;2.20;;;15.90;99.90;;;;;;5041696;28;20209;-71
2021/06/22 02:39:07;;;;;;;2.00;1.90;;;16.00;99.90;;;;;;5048711;28;20209;-69
2021/06/22 02:41:33;;;;;;;2.50;2.30;;;16.10;99.90;;;;;;5041828;28;20596;-68
2021/06/22 02:43:59;;;;;;;2.23;2.03;;;16.00;99.90;;;;;;5019111;28;20723;-69
2021/06/22 02:46:24;;;;;;;1.80;1.70;;;15.90;99.90;;;;;;5051038;28;20178;-72
2021/06/22 02:48:50;;;;;;;1.90;1.80;;;15.80;99.90;;;;;;5044316;28;20667;-72
2021/06/22 02:51:15;;;;;;;1.90;1.80;;;15.70;99.90;;;;;;5040288;28;20241;-69
2021/06/22 02:53:41;;;;;;;2.10;2.00;;;15.70;99.90;;;;;;5034457;28;20224;-69
2021/06/22 02:56:08;;;;;;;2.53;2.33;;;15.60;99.90;;;;;;5047832;28;20202;-71
2021/06/22 02:58:33;;;;;;;2.00;1.90;;;15.60;99.90;;;;;;5040856;28;20282;-70
2021/06/22 03:00:59;;;;;;;2.10;2.00;;;15.60;99.90;;;;;;5041966;28;20500;-71
2021/06/22 03:03:25;;;;;;;2.10;2.00;;;15.80;99.90;;;;;;5048872;28;20190;-72
2021/06/22 03:05:50;;;;;;;1.93;1.83;;;15.70;99.90;;;;;;5048783;28;20182;-70
2021/06/22 03:08:16;;;;;;;2.03;1.90;;;15.60;99.90;;;;;;5057866;28;20187;-71
2021/06/22 03:10:41;;;;;;;1.70;1.60;;;15.70;99.90;;;;;;5043991;28;20552;-69
2021/06/22 03:13:07;;;;;;;2.13;1.80;;;15.50;99.90;;;;;;5047803;28;20206;-69
2021/06/22 03:15:32;;;;;;;2.03;1.93;;;15.50;99.90;;;;;;5031307;28;20707;-70
2021/06/22 03:17:58;;;;;;;2.10;2.00;;;15.50;99.90;;;;;;5041932;28;20214;-71
2021/06/22 03:20:24;;;;;;;2.37;2.17;;;15.50;99.90;;;;;;5045323;28;20216;-71
2021/06/22 03:22:49;;;;;;;2.40;2.20;;;15.50;99.90;;;;;;5028132;28;20730;-70
2021/06/22 03:25:16;;;;;;;2.00;1.90;;;15.50;99.90;;;;;;5043123;28;20184;-71
2021/06/22 03:27:42;;;;;;;1.67;1.57;;;15.50;99.90;;;;;;5039037;28;20183;-70
2021/06/22 03:30:10;;;;;;;1.90;1.70;;;15.50;99.90;;;;;;5047822;28;20839;-70
2021/06/22 03:32:36;;;;;;;2.70;2.20;;;15.60;99.90;;;;;;5040734;28;20445;-71
2021/06/22 03:35:05;;;;;;;3.23;2.03;;;15.50;99.90;;;;;;5041284;28;20421;-71
2021/06/22 03:37:31;;;;;;;2.33;1.97;;;15.50;99.90;;;;;;5036480;28;20472;-71
2021/06/22 03:39:57;;;;;;;1.73;1.63;;;15.50;99.90;;;;;;5043575;28;20909;-71
2021/06/22 03:42:23;;;;;;;1.70;1.60;;;15.50;99.90;;;;;;5041964;28;20202;-70
2021/06/22 03:44:48;;;;;;;2.40;2.20;;;15.50;99.90;;;;;;5039127;28;20186;-71
2021/06/22 03:47:14;;;;;;;2.33;1.60;;;15.60;99.90;;;;;;5035024;28;20195;-71
2021/06/22 03:49:40;;;;;;;1.70;1.60;;;15.60;99.90;;;;;;5040738;28;20186;-71
2021/06/22 03:52:05;;;;;;;1.57;1.47;;;15.60;99.90;;;;;;5026514;28;20291;-71
2021/06/22 03:54:31;;;;;;;2.13;1.93;;;15.60;99.90;;;;;;5030490;28;20209;-71
2021/06/22 03:56:57;;;;;;;2.03;1.53;;;15.60;99.90;;;;;;5035903;28;20692;-71
2021/06/22 03:59:22;;;;;;;1.87;1.77;;;15.70;99.90;;;;;;5022136;28;20174;-71
2021/06/22 04:01:48;;;;;;;2.00;1.90;;;15.70;99.90;;;;;;5026520;28;20537;-71
2021/06/22 04:04:14;;;;;;;1.50;1.40;;;15.60;99.90;;;;;;5037113;28;20537;-71
2021/06/22 04:06:39;;;;;;;1.70;1.60;;;15.70;99.90;;;;;;5023558;28;20217;-71
2021/06/22 04:09:05;;;;;;;2.07;1.83;;;15.70;99.90;;;;;;5027624;28;20637;-71
2021/06/22 04:11:30;;;;;;;1.70;1.60;;;15.70;99.90;;;;;;5033697;28;20630;-71
2021/06/22 04:13:56;;;;;;;2.50;1.73;;;15.70;99.90;;;;;;5040352;28;20237;-71
2021/06/22 04:16:22;;;;;;;2.00;1.67;;;15.80;99.90;;;;;;5039768;28;20234;-70
2021/06/22 04:18:47;;;;;;;2.50;1.60;;;16.00;99.90;;;;;;5038972;28;20182;-71
2021/06/22 04:21:13;;;;;;;2.40;1.70;;;16.10;99.90;;;;;;5037212;28;20266;-71
2021/06/22 04:23:39;;;;;;;2.30;1.70;;;16.30;99.90;;;;;;5021192;28;20209;-69
2021/06/22 04:26:04;;;;;;;2.00;1.53;;;16.20;99.90;;;;;;5037184;28;20182;-69
2021/06/22 04:28:30;;;;;;;1.80;1.70;;;16.30;99.90;;;;;;5039877;28;20182;-69
2021/06/22 04:30:55;;;;;;;1.67;1.57;;;16.30;99.90;;;;;;5039453;28;20566;-68
2021/06/22 04:33:21;;;;;;;1.57;1.47;;;16.30;99.90;;;;;;5034679;28;20222;-71
2021/06/22 04:35:47;;;;;;;2.17;1.93;;;16.50;99.90;;;;;;5036637;28;20186;-71
2021/06/22 04:38:12;;;;;;;2.10;2.00;;;16.40;99.90;;;;;;5031646;28;20372;-70
2021/06/22 04:40:39;;;;;;;1.60;1.33;;;16.40;99.90;;;;;;5036108;28;20190;-68
2021/06/22 04:43:06;;;;;;;2.00;1.53;;;16.60;99.90;;;;;;5032499;28;20206;-69
2021/06/22 04:45:32;;;;;;;1.40;1.30;;;16.60;99.90;;;;;;5027025;28;20813;-70
2021/06/22 04:47:58;;;;;;;1.67;1.40;;;16.70;99.90;;;;;;5016044;28;20858;-70
2021/06/22 04:50:25;;;;;;;1.40;1.30;;;16.80;99.90;;;;;;5028210;28;20936;-71
2021/06/22 04:52:52;;;;;;;1.40;1.30;;;16.80;99.90;;;;;;5034614;28;20479;-71
2021/06/22 04:55:22;;;;;;;1.67;1.57;;;16.90;99.90;;;;;;5037502;28;20427;-70
2021/06/22 04:57:47;;;;;;;1.50;1.40;;;17.10;99.90;;;;;;5028352;28;20556;-69
2021/06/22 05:00:15;;;;;;;1.60;1.50;;;17.10;99.90;;;;;;5020994;28;20529;-70
2021/06/22 05:02:41;;;;;;;1.50;1.30;;;17.10;99.90;;;;;;5030733;28;20399;-70
2021/06/22 05:05:08;;;;;;;3.50;1.57;;;17.20;99.90;;;;;;5028643;28;20452;-69
2021/06/22 05:07:34;;;;;;;2.07;1.50;;;17.20;99.90;;;;;;5017101;28;20501;-69
2021/06/22 05:09:59;;;;;;;1.93;1.27;;;17.20;99.90;;;;;;5029015;28;20520;-68
2021/06/22 05:12:25;;;;;;;1.67;1.50;;;17.30;99.90;;;;;;5028623;28;20210;-69
2021/06/22 05:14:51;;;;;;;1.30;1.20;;;17.30;99.90;;;;;;5022818;28;20289;-70
2021/06/22 05:17:16;;;;;;;2.17;1.40;;;17.50;99.90;;;;;;5023803;28;20210;-70
2021/06/22 05:19:42;;;;;;;3.50;1.70;;;17.50;99.90;;;;;;5031159;28;20182;-70
2021/06/22 05:22:08;;;;;;;1.50;1.40;;;17.60;99.90;;;;;;5025434;28;20246;-70
2021/06/22 05:24:34;;;;;;;1.50;1.40;;;17.60;99.90;;;;;;5033975;28;20463;-70
2021/06/22 05:27:00;;;;;;;2.70;1.43;;;17.60;99.90;;;;;;5038972;28;20608;-70
2021/06/22 05:29:25;;;;;;;1.57;1.47;;;17.60;99.90;;;;;;5030634;28;20911;-69
2021/06/22 05:31:51;;;;;;;1.50;1.40;;;17.70;99.90;;;;;;5027930;28;20797;-69
2021/06/22 05:34:17;;;;;;;1.60;1.50;;;17.70;99.90;;;;;;5038427;28;20186;-69
2021/06/22 05:36:42;;;;;;;1.70;1.33;;;17.70;99.90;;;;;;5021457;28;20211;-70
2021/06/22 05:39:08;;;;;;;1.60;1.50;;;17.60;99.90;;;;;;5036728;28;20185;-69
2021/06/22 05:41:34;;;;;;;1.53;1.43;;;17.50;99.90;;;;;;5036321;28;20576;-68
2021/06/22 05:43:59;;;;;;;1.80;1.70;;;17.50;99.90;;;;;;5034209;28;20571;-68
2021/06/22 05:46:25;;;;;;;1.40;1.30;;;17.50;99.90;;;;;;5017368;28;20774;-69
2021/06/22 05:48:50;;;;;;;2.40;1.30;;;17.50;99.90;;;;;;5025175;28;20696;-68
2021/06/22 05:51:16;;;;;;;2.73;1.63;;;17.50;99.90;;;;;;5033233;28;20214;-70
2021/06/22 05:53:42;;;;;;;2.03;1.27;;;17.60;99.90;;;;;;5033147;28;20202;-69
2021/06/22 05:56:08;;;;;;;5.37;1.90;;;17.70;99.90;;;;;;5037270;28;20252;-69
2021/06/22 05:58:33;;;;;;;1.80;1.70;;;17.90;99.90;;;;;;5027464;28;20674;-69
2021/06/22 06:00:59;;;;;;;2.13;1.47;;;17.90;99.90;;;;;;5017795;28;20240;-69
2021/06/22 06:03:24;;;;;;;1.57;1.47;;;18.00;99.90;;;;;;5021728;28;20588;-69
2021/06/22 06:05:50;;;;;;;1.50;1.20;;;18.00;99.90;;;;;;5015216;28;20242;-71
2021/06/22 06:08:16;;;;;;;2.17;1.70;;;18.10;99.90;;;;;;5041002;28;20310;-70
2021/06/22 06:10:41;;;;;;;3.13;1.80;;;18.20;99.90;;;;;;5037526;28;20183;-71
2021/06/22 06:13:07;;;;;;;2.00;1.30;;;18.40;99.90;;;;;;5040314;28;20246;-70
2021/06/22 06:15:33;;;;;;;2.17;1.97;;;18.60;99.90;;;;;;5034630;28;20194;-71
2021/06/22 06:17:58;;;;;;;1.43;1.33;;;18.80;99.90;;;;;;5033497;28;20245;-67
2021/06/22 06:20:26;;;;;;;2.57;1.23;;;19.00;99.90;;;;;;5038154;28;20182;-68
2021/06/22 06:22:52;;;;;;;1.97;1.60;;;19.10;99.90;;;;;;5021874;28;20302;-69
2021/06/22 06:25:17;;;;;;;1.93;1.50;;;19.20;99.90;;;;;;5040372;28;20501;-69
2021/06/22 06:30:18;;;;;;;1.43;1.33;;;19.10;99.90;;;;;;5035949;28;20564;-69
2021/06/22 06:32:48;;;;;;;3.77;1.23;;;19.30;99.90;;;;;;5033964;28;20491;-69
2021/06/22 06:35:16;;;;;;;1.50;1.20;;;19.20;99.90;;;;;;5027086;28;20450;-70
2021/06/22 06:37:41;;;;;;;4.37;1.47;;;19.20;99.90;;;;;;5028603;28;20474;-69
2021/06/22 06:40:09;;;;;;;1.60;1.30;;;19.30;99.90;;;;;;5025020;28;20442;-69
2021/06/22 06:42:35;;;;;;;1.53;1.10;;;19.30;99.90;;;;;;5038429;28;20202;-77
2021/06/22 06:45:01;;;;;;;1.60;1.20;;;19.20;99.90;;;;;;5017043;28;20438;-77
2021/06/22 06:47:26;;;;;;;1.30;1.13;;;19.20;99.90;;;;;;5029402;28;20568;-77
2021/06/22 06:49:52;;;;;;;1.40;1.30;;;19.20;99.90;;;;;;5028427;28;20194;-76
2021/06/22 06:52:18;;;;;;;2.03;1.17;;;19.20;99.90;;;;;;5027754;28;20213;-76
2021/06/22 06:54:44;;;;;;;1.43;0.97;;;19.20;99.90;;;;;;5041160;28;20178;-77
2021/06/22 06:57:09;;;;;;;1.30;1.20;;;19.30;99.90;;;;;;5035500;28;20962;-77
2021/06/22 06:59:35;;;;;;;2.47;1.20;;;19.60;99.90;;;;;;5019219;28;20206;-76
2021/06/22 07:02:01;;;;;;;1.37;1.27;;;19.70;99.90;;;;;;5032210;28;20558;-76
2021/06/22 07:04:26;;;;;;;1.10;1.00;;;19.90;99.90;;;;;;5035737;28;20650;-76
2021/06/22 07:06:52;;;;;;;1.70;1.10;;;19.90;99.90;;;;;;5036162;28;20185;-76
2021/06/22 07:09:17;;;;;;;2.30;1.13;;;20.10;99.90;;;;;;5034798;28;20190;-77
2021/06/22 07:11:43;;;;;;;1.33;1.23;;;20.10;99.90;;;;;;5031654;28;20186;-77
2021/06/22 07:14:13;;;;;;;1.30;1.20;;;20.20;99.90;;;;;;5034726;28;20186;-77
2021/06/22 07:16:39;;;;;;;1.33;1.23;;;20.30;99.90;;;;;;5022640;28;20709;-77
2021/06/22 07:19:05;;;;;;;1.10;0.97;;;20.50;99.90;;;;;;5035294;28;20431;-77
2021/06/22 07:21:31;;;;;;;1.23;0.97;;;20.70;99.90;;;;;;5019843;28;20195;-77
2021/06/22 07:23:56;;;;;;;1.60;1.40;;;20.90;99.90;;;;;;5031209;28;20447;-77
2021/06/22 07:26:22;;;;;;;1.27;1.20;;;21.00;99.90;;;;;;5037785;28;20190;-77
2021/06/22 07:28:47;;;;;;;6.93;1.33;;;21.10;99.90;;;;;;5036453;28;20197;-77
2021/06/22 07:31:14;;;;;;;1.40;1.30;;;21.10;99.90;;;;;;5036910;28;20191;-76
2021/06/22 07:33:40;;;;;;;1.20;1.10;;;21.00;99.90;;;;;;5026859;28;21454;-77
2021/06/22 07:36:09;;;;;;;3.43;1.43;;;21.00;99.90;;;;;;5036702;28;20455;-77
2021/06/22 07:38:35;;;;;;;1.90;1.60;;;21.00;99.90;;;;;;5034509;28;20944;-76
2021/06/22 07:41:02;;;;;;;1.40;1.30;;;20.90;99.90;;;;;;5042723;28;20424;-77
2021/06/22 07:43:28;;;;;;;1.83;1.63;;;20.80;99.90;;;;;;5024432;28;20482;-76
2021/06/22 07:45:53;;;;;;;1.03;0.93;;;20.60;99.90;;;;;;5027071;28;20455;-76
2021/06/22 07:48:20;;;;;;;1.63;1.53;;;20.60;99.90;;;;;;5021761;28;20191;-75
2021/06/22 07:50:46;;;;;;;1.30;1.20;;;20.70;99.90;;;;;;5026894;28;20668;-76
2021/06/22 07:53:12;;;;;;;1.40;1.30;;;20.80;99.90;;;;;;5037367;28;20451;-76
2021/06/22 07:55:37;;;;;;;1.70;1.60;;;20.90;99.90;;;;;;5046779;28;20194;-76
2021/06/22 07:58:03;;;;;;;1.90;1.27;;;20.90;99.90;;;;;;5044904;28;20222;-76
2021/06/22 08:02:57;;;;;;;2.07;1.33;;;20.80;99.90;;;;;;5035044;28;20221;-77
2021/06/22 08:05:22;;;;;;;1.53;1.40;;;20.80;99.90;;;;;;5038239;28;20418;-77
2021/06/22 08:07:48;;;;;;;1.83;1.20;;;20.90;99.90;;;;;;5029164;28;21003;-76
2021/06/22 08:10:14;;;;;;;1.57;1.10;;;21.00;99.90;;;;;;5039612;28;20212;-77
2021/06/22 08:12:39;;;;;;;1.50;1.40;;;21.10;99.90;;;;;;5034015;28;20211;-76
2021/06/22 08:15:05;;;;;;;1.60;1.50;;;21.10;99.90;;;;;;5038029;28;20427;-76
2021/06/22 08:17:31;;;;;;;1.93;1.27;;;21.40;99.90;;;;;;5039054;28;20584;-76
2021/06/22 08:19:57;;;;;;;1.97;1.50;;;21.50;99.90;;;;;;5041571;28;20431;-76
2021/06/22 08:22:23;;;;;;;2.23;1.60;;;21.70;99.90;;;;;;5025615;28;20220;-75
2021/06/22 08:24:49;;;;;;;2.50;1.40;;;21.70;99.90;;;;;;5038108;28;20528;-75
2021/06/22 08:27:14;;;;;;;1.23;1.13;;;21.80;99.90;;;;;;5037898;28;20439;-76
2021/06/22 08:29:40;;;;;;;1.20;1.00;;;21.90;99.90;;;;;;5033542;28;20248;-77
2021/06/22 08:32:06;;;;;;;2.27;2.07;;;21.80;99.90;;;;;;5038769;28;20214;-76
2021/06/22 08:34:32;;;;;;;1.40;1.30;;;21.80;99.90;;;;;;5023211;28;20196;-75
2021/06/22 08:36:57;;;;;;;1.87;1.50;;;21.80;99.90;;;;;;5036287;28;20477;-76
2021/06/22 08:39:23;;;;;;;2.50;1.03;;;21.60;99.90;;;;;;5036336;28;20183;-76
2021/06/22 08:41:52;;;;;;;1.63;1.30;;;21.50;99.90;;;;;;5028662;28;20234;-76
2021/06/22 08:44:19;;;;;;;1.70;1.60;;;21.50;99.90;;;;;;5029173;28;20282;-77
2021/06/22 08:46:45;;;;;;;1.67;1.57;;;21.40;99.90;;;;;;5029182;28;20506;-77
2021/06/22 08:49:14;;;;;;;3.50;1.80;;;21.40;99.90;;;;;;5036135;28;20421;-77
2021/06/22 08:51:42;;;;;;;1.43;1.20;;;21.40;99.90;;;;;;5034657;28;20945;-75
2021/06/22 08:54:08;;;;;;;1.47;1.30;;;21.50;99.90;;;;;;5035495;28;20934;-76
2021/06/22 08:56:35;;;;;;;1.77;1.67;;;21.30;99.90;;;;;;5034954;28;20912;-76
2021/06/22 08:59:00;;;;;;;1.53;1.30;;;21.30;99.90;;;;;;5033220;28;20426;-75
2021/06/22 09:01:27;;;;;;;1.40;1.30;;;21.30;99.90;;;;;;5033352;28;20933;-76
2021/06/22 09:03:52;;;;;;;2.17;1.50;;;21.30;99.90;;;;;;5036125;28;20199;-76
2021/06/22 09:06:18;;;;;;;1.80;1.40;;;21.20;99.90;;;;;;5030031;28;20512;-77
2021/06/22 09:08:55;;;;;;;1.63;1.37;;;21.20;99.90;;;;;;5019193;28;20195;-75
2021/06/22 09:11:20;;;;;;;1.40;1.30;;;21.10;99.90;;;;;;5039193;28;20182;-77
2021/06/22 09:13:57;;;;;;;1.67;1.30;;;21.00;99.90;;;;;;5038889;28;20860;-78
2021/06/22 09:16:23;;;;;;;2.60;1.40;;;20.90;99.90;;;;;;5029959;28;20683;-77
2021/06/22 09:18:49;;;;;;;3.17;1.60;;;20.80;99.90;;;;;;5026713;28;20432;-77
2021/06/22 09:21:22;;;;;;;1.53;1.43;;;20.80;99.90;;;;;;5029591;28;20426;-75
2021/06/22 09:23:50;;;;;;;1.30;1.20;;;20.70;99.90;;;;;;5030860;28;20202;-76
2021/06/22 09:26:21;;;;;;;1.50;1.40;;;20.50;99.90;;;;;;5032536;28;20427;-76
2021/06/22 09:28:47;;;;;;;1.80;1.70;;;20.50;99.90;;;;;;5027259;28;20513;-77
2021/06/22 09:31:16;;;;;;;2.33;2.23;;;20.40;99.90;;;;;;5035292;28;20437;-77
2021/06/22 09:33:51;;;;;;;1.50;1.37;;;20.40;99.90;;;;;;5037547;28;20457;-76
2021/06/22 09:36:21;;;;;;;3.23;1.40;;;20.20;99.90;;;;;;5026020;28;20925;-76
2021/06/22 09:38:56;;;;;;;3.83;1.60;;;20.10;99.90;;;;;;5028023;28;20475;-76
2021/06/22 09:41:27;;;;;;;1.83;1.37;;;20.00;99.90;;;;;;5036724;28;20421;-76
2021/06/22 09:44:14;;;;;;;1.70;1.60;;;20.00;99.90;;;;;;5035305;28;20456;-76
2021/06/22 09:46:43;;;;;;;2.10;1.90;;;19.90;99.90;;;;;;5034947;28;20437;-76
2021/06/22 09:49:15;;;;;;;2.00;1.80;;;19.90;99.90;;;;;;5018257;28;20429;-76
2021/06/22 09:52:08;;;;;;;2.30;1.50;;;19.80;99.90;;;;;;5035886;28;20421;-74
2021/06/22 09:54:46;;;;;;;1.50;1.40;;;19.80;99.90;;;;;;5034675;28;20425;-76
2021/06/22 09:57:20;;;;;;;1.43;1.33;;;19.80;99.90;;;;;;5035458;28;20572;-75
2021/06/22 10:00:09;;;;;;;1.90;1.70;;;19.80;99.90;;;;;;5027872;28;20442;-75
2021/06/22 10:02:53;;;;;;;1.73;1.63;;;19.90;99.90;;;;;;5033863;28;20481;-76
2021/06/22 10:05:19;;;;;;;1.83;1.73;;;20.00;99.90;;;;;;5029965;28;20846;-77
2021/06/22 10:07:45;;;;;;;1.90;1.80;;;20.10;99.90;;;;;;5026354;28;20426;-75
2021/06/22 10:10:11;;;;;;;1.70;1.60;;;20.10;99.90;;;;;;5031820;28;20425;-75
2021/06/22 10:12:43;;;;;;;1.60;1.50;;;20.00;99.90;;;;;;5039004;28;20210;-76
2021/06/22 10:15:10;;;;;;;1.73;1.63;;;20.10;99.90;;;;;;5032435;28;20436;-76
2021/06/22 10:17:35;;;;;;;2.10;1.90;;;20.30;99.90;;;;;;5034972;28;20473;-76
2021/06/22 10:20:05;;;;;;;1.80;1.70;;;20.30;99.90;;;;;;5036814;28;20823;-75
2021/06/22 10:22:32;;;;;;;3.77;1.67;;;20.10;99.90;;;;;;5016882;28;20257;-76
2021/06/22 10:25:00;;;;;;;2.30;1.80;;;20.20;99.90;;;;;;5034145;28;20425;-76
2021/06/22 10:27:26;;;;;;;4.37;1.90;;;20.40;99.90;;;;;;5015365;28;20437;-76
2021/06/22 10:29:55;;;;;;;2.60;2.00;;;20.40;99.90;;;;;;5034608;28;20437;-75
2021/06/22 10:32:23;;;;;;;2.00;1.80;;;20.40;99.90;;;;;;5016936;28;20454;-76
2021/06/22 10:34:56;;;;;;;1.70;1.60;;;20.40;99.90;;;;;;5032157;28;20434;-76
2021/06/22 10:37:30;;;;;;;2.53;2.03;;;20.50;99.90;;;;;;5019351;28;20982;-76
2021/06/22 10:40:12;;;;;;;1.90;1.80;;;20.60;99.90;;;;;;5036080;28;20437;-76
2021/06/22 10:42:39;;;;;;;2.67;1.90;;;20.70;99.90;;;;;;5025684;28;20532;-76
2021/06/22 10:45:05;;;;;;;1.80;1.70;;;20.80;99.90;;;;;;5018087;28;21029;-77
2021/06/22 10:47:33;;;;;;;2.50;1.80;;;21.00;99.90;;;;;;5037610;28;20428;-76
2021/06/22 10:49:59;;;;;;;2.10;1.70;;;21.20;99.90;;;;;;5020664;28;20449;-75
2021/06/22 10:52:45;;;;;;;2.53;1.60;;;21.50;99.90;;;;;;5026207;28;20452;-76
2021/06/22 10:55:43;;;;;;;2.00;1.90;;;21.80;99.90;;;;;;5031540;28;20197;-77
2021/06/22 10:58:11;;;;;;;2.67;2.07;;;22.00;99.90;;;;;;5028163;28;20480;-76
2021/06/22 11:00:37;;;;;;;2.37;2.17;;;22.00;99.90;;;;;;5038326;28;20433;-76
2021/06/22 11:03:11;;;;;;;2.10;1.90;;;22.00;99.90;;;;;;5036668;28;20464;-76
2021/06/22 11:05:39;;;;;;;2.77;1.97;;;22.00;99.90;;;;;;5035583;28;20194;-75
2021/06/22 11:08:17;;;;;;;3.10;2.20;;;22.00;99.90;;;;;;5034847;28;20468;-75
2021/06/22 11:10:54;;;;;;;2.27;1.93;;;22.00;99.90;;;;;;5037134;28;20918;-76
2021/06/22 11:13:40;;;;;;;2.20;2.10;;;22.20;99.90;;;;;;5044155;28;20448;-77
2021/06/22 11:16:21;;;;;;;1.90;1.80;;;22.20;99.90;;;;;;5029917;28;20433;-77
2021/06/22 11:18:53;;;;;;;2.07;1.97;;;22.30;99.90;;;;;;5026835;28;20450;-75
2021/06/22 11:21:19;;;;;;;2.13;1.90;;;22.30;99.90;;;;;;5035673;28;20765;-76
2021/06/22 11:24:09;;;;;;;2.23;2.03;;;22.20;99.90;;;;;;5029851;28;20441;-76
2021/06/22 11:26:40;;;;;;;2.93;2.37;;;22.10;99.90;;;;;;5031103;28;20439;-76
2021/06/22 11:29:07;;;;;;;2.13;1.70;;;22.00;99.90;;;;;;5031638;28;20457;-75
2021/06/22 11:31:45;;;;;;;2.00;1.90;;;22.00;99.90;;;;;;5039326;28;20478;-76
2021/06/22 11:34:14;;;;;;;3.07;2.17;;;22.00;99.90;;;;;;5033329;28;20425;-76
2021/06/22 11:36:49;;;;;;;2.20;1.83;;;21.80;99.90;;;;;;5033959;28;20998;-75
2021/06/22 11:39:37;;;;;;;4.50;2.17;;;21.70;99.90;;;;;;5032361;28;20426;-76
2021/06/22 11:42:12;;;;;;;2.33;2.13;;;21.50;99.90;;;;;;5031009;28;20457;-75
2021/06/22 11:45:15;;;;;;;2.40;2.30;;;21.20;99.90;;;;;;5029846;28;20435;-77
2021/06/22 11:47:47;;;;;;;4.70;2.00;;;21.00;99.90;;;;;;5030611;28;20505;-76
2021/06/22 11:50:13;;;;;;;2.43;2.33;;;20.80;99.90;;;;;;5035321;28;20442;-75
2021/06/22 11:52:42;;;;;;;2.00;1.90;;;20.70;99.90;;;;;;5033186;28;20452;-76
2021/06/22 11:55:15;;;;;;;2.87;2.20;;;20.80;99.90;;;;;;5039264;28;20189;-75
2021/06/22 11:57:51;;;;;;;4.40;2.40;;;20.70;99.90;;;;;;5035903;28;20468;-76
2021/06/22 12:00:20;;;;;;;2.70;2.50;;;20.50;99.90;;;;;;5034776;28;20437;-75
2021/06/22 12:02:53;;;;;;;2.43;2.23;;;20.50;99.90;;;;;;5038885;28;20590;-75
2021/06/22 12:05:20;;;;;;;2.63;2.43;;;20.50;99.90;;;;;;5035256;28;20960;-75
2021/06/22 12:07:57;;;;;;;2.60;2.40;;;20.40;99.90;;;;;;5027517;28;20437;-75
2021/06/22 12:10:25;;;;;;;3.53;2.60;;;20.10;99.90;;;;;;5036803;28;20461;-75
2021/06/22 12:12:52;;;;;;;2.53;2.40;;;20.00;99.90;;;;;;5038488;28;20445;-75
2021/06/22 12:15:29;;;;;;;8.63;3.30;;;20.00;99.90;;;;;;5035724;28;20440;-75
2021/06/22 12:17:55;;;;;;;2.80;2.60;;;19.90;99.90;;;;;;5024306;28;20470;-75
2021/06/22 12:20:22;;;;;;;2.73;2.30;;;19.90;99.90;;;;;;5039606;28;20430;-75
2021/06/22 12:23:12;;;;;;;2.70;2.50;;;19.90;99.90;;;;;;5021642;28;20222;-74
2021/06/22 12:25:49;;;;;;;3.43;3.13;;;19.80;99.90;;;;;;5031516;28;20923;-74
2021/06/22 12:28:16;;;;;;;3.23;2.93;;;19.60;99.90;;;;;;5034634;28;20451;-74
2021/06/22 12:30:47;;;;;;;3.10;2.90;;;19.50;99.90;;;;;;5031317;28;20433;-74
2021/06/22 12:33:19;;;;;;;3.50;3.30;;;19.40;99.90;;;;;;5037102;28;20449;-74
2021/06/22 12:35:48;;;;;;;3.73;3.17;;;19.30;99.90;;;;;;5023670;28;20429;-74
2021/06/22 12:38:15;;;;;;;3.80;3.50;;;19.40;99.90;;;;;;5038112;28;20983;-75
2021/06/22 12:40:47;;;;;;;3.10;2.83;;;19.30;99.90;;;;;;5036012;28;20456;-75
2021/06/22 12:43:14;;;;;;;6.23;3.70;;;19.30;99.90;;;;;;5038227;28;20991;-75
2021/06/22 12:45:40;;;;;;;5.23;3.27;;;19.20;99.90;;;;;;5029806;28;20437;-75
2021/06/22 12:48:07;;;;;;;3.20;3.00;;;19.20;99.90;;;;;;5033125;28;20784;-75
2021/06/22 12:50:35;;;;;;;4.53;4.23;;;19.10;99.90;;;;;;5017984;28;20190;-75
2021/06/22 12:53:01;;;;;;;4.60;4.30;;;18.90;99.90;;;;;;5032355;28;20436;-75
2021/06/22 12:55:35;;;;;;;3.73;3.37;;;19.00;99.90;;;;;;5034479;28;20844;-75